Airfield :
LOGIN :

Register | Disclaimer

   EN    FR    IT 

 










Legend :    VFR   Marginal VFR   IFR   Intensive IFR   Very Intensive IFR
Visi :
Ceiling :
>= 8 km
>= 3000ft
5 to 8 km
1000 to 3000 ft
1500m to 5 km
500 to 1000 ft
800 to 1500m
200 to 500 ft
< 800m
< 200 ft
Symbols :   Thunderstorms  Fog  Heavy snow  Heavy precipitations  Wind > 20 kt
SIGMETs :     Misc.  Thunderstorms  Icing  Turbulence  Mountain Waves  Volcanic Ashes






- Airport Elevation : 17 ft
- IATA code : DND


EGPN - Dundee

CURRENT METAR :
  • 011320Z 00000KT 9999 FEW015 01/M01 Q1011

EXPIRED METARs :
  • 011250Z 00000KT 9999 FEW015 00/M01 Q1011
  • 011220Z 25001KT 9999 FEW015 01/M01 Q1011
  • 011150Z 00000KT 9999 FEW015 01/M01 Q1011
  • 011120Z 00000KT 9999 FEW015 M00/M02 Q1011
  • 011050Z 00000KT 9999 FEW015 M01/M02 Q1011
  • 011020Z 00000KT 9999 FEW015 M00/M02 Q1011
  • 010950Z 00000KT 9999 FEW015 M01/M02 Q1011
  • 010920Z 00000KT 9999 FEW015 M01/M02 Q1011
  • 010850Z 00000KT 9999 FEW015 M02/M03 Q1011

TAF TAF EGPN
Valid from the 01 at 12:00 until the 01 at 21:00 UTC


011103Z 0112/0121 VRB02KT 9999 FEW040



MET'MAP, your aeronautical weather chart ! - Copyright ORBIFLY December 2007 - Disclaimer

ORBIFLY MET'MAP TEAM :

Programming & Development : Alexandra Zaïnal
Original concept : Baudouin d'Aumeries
Technical & hardware support : Manuel Goepfert
Assistance : Marc-Olivier Méhu




SOURCES & CREDITS :

   NOAA